createdAt,value
2023-03-16T00:00:55.348Z,3.80
2023-03-16T00:01:57.678Z,3.17
2023-03-16T00:02:59.668Z,3.20
2023-03-16T00:04:02.186Z,3.55
2023-03-16T00:05:04.215Z,3.70
2023-03-16T00:06:06.406Z,2.95
2023-03-16T00:07:11.409Z,3.28
2023-03-16T00:08:14.076Z,3.30
2023-03-16T00:09:15.953Z,3.50
2023-03-16T00:10:18.043Z,3.30
2023-03-16T00:11:20.021Z,3.67
2023-03-16T00:12:22.676Z,3.50
2023-03-16T00:13:25.214Z,3.40
2023-03-16T00:14:27.171Z,4.00
2023-03-16T00:15:29.853Z,3.65
2023-03-16T00:16:32.124Z,6.72
2023-03-16T00:17:34.873Z,7.18
2023-03-16T00:18:38.888Z,4.90
2023-03-16T00:19:46.889Z,6.47
2023-03-16T00:21:02.157Z,8.02
2023-03-16T00:22:04.071Z,6.43
2023-03-16T00:23:06.235Z,21.27
2023-03-16T00:24:09.058Z,12.07
2023-03-16T00:25:14.426Z,14.68
2023-03-16T00:26:16.499Z,14.75
2023-03-16T00:27:18.492Z,22.58
2023-03-16T00:28:21.928Z,19.20
2023-03-16T00:29:23.847Z,20.30
2023-03-16T00:30:27.312Z,23.30
2023-03-16T00:31:29.322Z,32.22
2023-03-16T00:32:34.516Z,52.08
2023-03-16T00:33:36.724Z,32.38
2023-03-16T00:34:40.565Z,21.65
2023-03-16T00:35:49.918Z,19.02
2023-03-16T00:36:52.046Z,9.52
2023-03-16T00:37:57.359Z,5.40
2023-03-16T00:39:00.019Z,5.40
2023-03-16T00:40:01.914Z,5.45
2023-03-16T00:41:05.786Z,3.45
2023-03-16T00:42:09.397Z,3.08
2023-03-16T00:43:11.343Z,3.30
2023-03-16T00:44:13.581Z,3.55
2023-03-16T00:45:15.597Z,3.65
2023-03-16T00:46:18.299Z,3.40
2023-03-16T00:47:20.262Z,3.45
2023-03-16T00:48:24.492Z,3.15
2023-03-16T00:49:26.776Z,3.35
2023-03-16T00:50:29.390Z,4.78
2023-03-16T00:51:33.958Z,4.97
2023-03-16T00:52:36.055Z,6.07
2023-03-16T00:53:37.935Z,5.00
2023-03-16T00:54:42.833Z,6.32
2023-03-16T00:55:44.908Z,4.90
2023-03-16T00:56:46.940Z,4.25
2023-03-16T00:57:49.530Z,4.18
2023-03-16T00:58:57.618Z,4.50
2023-03-16T01:00:01.685Z,5.60
2023-03-16T01:01:06.094Z,7.90
2023-03-16T01:02:09.270Z,8.80
2023-03-16T01:03:11.264Z,7.12
2023-03-16T01:04:13.976Z,7.75
2023-03-16T01:05:16.263Z,6.82
2023-03-16T01:06:20.590Z,7.80
2023-03-16T01:07:23.138Z,5.82
2023-03-16T01:08:28.101Z,6.50
2023-03-16T01:09:30.098Z,6.57
2023-03-16T01:10:33.721Z,6.28
2023-03-16T01:11:35.659Z,5.12
2023-03-16T01:12:37.708Z,5.18
2023-03-16T01:13:40.467Z,5.60
2023-03-16T01:14:45.891Z,6.85
2023-03-16T01:15:51.265Z,5.43
2023-03-16T01:16:53.253Z,6.43
2023-03-16T01:17:55.499Z,4.72
2023-03-16T01:18:57.677Z,4.00
2023-03-16T01:19:59.595Z,4.07
2023-03-16T01:21:03.532Z,4.00
2023-03-16T01:22:09.910Z,3.50
2023-03-16T01:23:13.029Z,3.15
2023-03-16T01:24:14.904Z,3.47
2023-03-16T01:25:18.378Z,3.10
2023-03-16T01:26:22.566Z,3.12
2023-03-16T01:27:26.299Z,2.97
2023-03-16T01:28:30.310Z,3.12
2023-03-16T01:29:33.108Z,3.40
2023-03-16T01:30:35.816Z,3.10
2023-03-16T01:31:39.217Z,3.40
2023-03-16T01:32:42.005Z,3.08
2023-03-16T01:33:47.260Z,3.35
2023-03-16T01:34:49.661Z,3.15
2023-03-16T01:35:56.786Z,3.10
2023-03-16T01:37:00.015Z,3.40
2023-03-16T01:38:02.429Z,3.35
2023-03-16T01:39:05.133Z,3.35
2023-03-16T01:40:09.081Z,3.55
2023-03-16T01:41:12.071Z,3.25
2023-03-16T01:42:14.454Z,2.83
2023-03-16T01:43:16.525Z,4.12
2023-03-16T01:44:24.329Z,4.07
2023-03-16T01:45:57.462Z,2.83
2023-03-16T01:46:59.673Z,3.05
2023-03-16T01:48:01.887Z,3.33
2023-03-16T01:49:35.978Z,3.35
2023-03-16T01:50:38.152Z,3.42
2023-03-16T01:51:56.376Z,3.08
2023-03-16T01:52:58.932Z,3.50
2023-03-16T01:54:15.093Z,3.40
2023-03-16T01:55:18.375Z,3.47
2023-03-16T01:56:27.488Z,3.78
2023-03-16T01:57:37.443Z,3.40
2023-03-16T01:58:41.860Z,3.92
2023-03-16T01:59:59.091Z,3.92
2023-03-16T02:01:01.482Z,3.85
2023-03-16T02:02:04.127Z,4.03
2023-03-16T02:03:13.871Z,3.90
2023-03-16T02:04:38.013Z,4.53
2023-03-16T02:05:50.331Z,5.07
2023-03-16T02:07:59.202Z,4.95
2023-03-16T02:09:02.582Z,3.80
2023-03-16T02:10:06.883Z,4.25
2023-03-16T02:11:09.800Z,3.53
2023-03-16T02:12:18.343Z,3.42
2023-03-16T02:13:22.766Z,3.70
2023-03-16T02:14:24.930Z,3.47
2023-03-16T02:15:27.462Z,3.37
2023-03-16T02:16:29.446Z,3.80
2023-03-16T02:17:34.052Z,3.60
2023-03-16T02:18:36.656Z,3.65
2023-03-16T02:19:38.849Z,4.32
2023-03-16T02:20:52.328Z,3.90
2023-03-16T02:22:03.388Z,4.03
2023-03-16T02:23:08.884Z,3.50
2023-03-16T02:24:11.186Z,4.20
2023-03-16T02:25:17.044Z,4.03
2023-03-16T02:26:31.957Z,4.18
2023-03-16T02:27:39.905Z,3.87
2023-03-16T02:28:52.503Z,4.50
2023-03-16T02:30:11.798Z,3.90
2023-03-16T02:31:17.213Z,4.18
2023-03-16T02:32:21.524Z,3.87
2023-03-16T02:33:25.339Z,3.90
2023-03-16T02:34:28.521Z,3.60
2023-03-16T02:35:31.379Z,3.53
2023-03-16T02:36:34.602Z,4.30
2023-03-16T02:37:36.620Z,3.12
2023-03-16T02:38:39.040Z,3.58
2023-03-16T02:39:44.105Z,3.75
2023-03-16T02:40:58.192Z,3.58
2023-03-16T02:42:02.172Z,4.30
2023-03-16T02:43:09.433Z,3.20
2023-03-16T02:44:24.345Z,3.55
2023-03-16T02:45:33.561Z,3.60
2023-03-16T02:46:36.978Z,3.85
2023-03-16T02:47:43.931Z,4.20
2023-03-16T02:49:07.075Z,3.75
2023-03-16T02:50:12.554Z,3.25
2023-03-16T02:51:16.018Z,3.53
2023-03-16T02:52:18.261Z,3.67
2023-03-16T02:53:21.708Z,3.65
2023-03-16T02:54:24.515Z,3.70
2023-03-16T02:55:26.843Z,3.70
2023-03-16T02:56:28.903Z,4.20
2023-03-16T02:57:31.766Z,3.70
2023-03-16T02:58:34.844Z,3.78
2023-03-16T02:59:39.618Z,3.60
2023-03-16T03:00:45.620Z,3.50
2023-03-16T03:01:48.694Z,3.60
2023-03-16T03:02:52.611Z,3.67
2023-03-16T03:03:54.604Z,3.67
2023-03-16T03:04:56.624Z,4.15
2023-03-16T03:06:01.675Z,3.78
2023-03-16T03:07:05.489Z,4.40
2023-03-16T03:08:08.590Z,3.87
2023-03-16T03:09:13.414Z,4.60
2023-03-16T03:10:15.999Z,4.20
2023-03-16T03:11:21.449Z,4.25
2023-03-16T03:12:23.540Z,4.40
2023-03-16T03:13:25.603Z,4.22
2023-03-16T03:14:28.568Z,4.57
2023-03-16T03:15:30.463Z,4.10
2023-03-16T03:16:33.322Z,4.68
2023-03-16T03:17:35.296Z,4.47
2023-03-16T03:18:37.449Z,4.30
2023-03-16T03:19:39.363Z,4.93
2023-03-16T03:20:41.569Z,4.30
2023-03-16T03:21:45.203Z,4.95
2023-03-16T03:22:52.778Z,4.60
2023-03-16T03:23:55.021Z,4.20
2023-03-16T03:24:56.924Z,4.70
2023-03-16T03:25:59.906Z,4.43
2023-03-16T03:27:05.975Z,5.20
2023-03-16T03:28:11.444Z,4.78
2023-03-16T03:29:13.575Z,4.75
2023-03-16T03:30:21.825Z,5.15
2023-03-16T03:31:23.794Z,4.43
2023-03-16T03:32:26.363Z,5.00
2023-03-16T03:33:29.010Z,5.32
2023-03-16T03:34:32.779Z,5.62
2023-03-16T03:35:34.894Z,6.12
2023-03-16T03:36:36.854Z,5.55
2023-03-16T03:37:42.511Z,5.68
2023-03-16T03:38:44.453Z,5.80
2023-03-16T03:39:48.388Z,6.40
2023-03-16T03:40:52.063Z,6.87
2023-03-16T03:41:54.660Z,6.28
2023-03-16T03:42:57.031Z,6.40
2023-03-16T03:44:00.419Z,6.75
2023-03-16T03:45:03.130Z,7.25
2023-03-16T03:46:05.341Z,5.78
2023-03-16T03:47:07.798Z,5.60
2023-03-16T03:48:10.265Z,5.18
2023-03-16T03:49:12.551Z,6.00
2023-03-16T03:50:14.596Z,6.15
2023-03-16T03:51:17.922Z,5.25
2023-03-16T03:52:19.993Z,4.72
2023-03-16T03:53:23.562Z,5.28
2023-03-16T03:54:27.764Z,4.70
2023-03-16T03:55:30.033Z,4.95
2023-03-16T03:56:31.950Z,4.70
2023-03-16T03:57:34.262Z,4.45
2023-03-16T03:58:36.975Z,4.32
2023-03-16T03:59:43.608Z,4.20
2023-03-16T04:00:45.962Z,5.12
2023-03-16T04:01:49.158Z,4.85
2023-03-16T04:02:51.622Z,4.50
2023-03-16T04:03:54.266Z,3.90
2023-03-16T04:04:56.243Z,4.20
2023-03-16T04:05:58.357Z,4.45
2023-03-16T04:07:01.837Z,4.87
2023-03-16T04:08:04.318Z,4.40
2023-03-16T04:09:06.192Z,5.35
2023-03-16T04:10:09.390Z,4.55
2023-03-16T04:11:12.013Z,4.95
2023-03-16T04:12:14.541Z,4.60
2023-03-16T04:13:16.401Z,5.15
2023-03-16T04:14:18.389Z,4.65
2023-03-16T04:15:20.311Z,4.93
2023-03-16T04:16:22.849Z,4.60
2023-03-16T04:17:26.836Z,4.72
2023-03-16T04:18:42.735Z,4.62
2023-03-16T04:19:44.865Z,4.53
2023-03-16T04:20:46.851Z,3.83
2023-03-16T04:21:50.036Z,4.95
2023-03-16T04:22:58.492Z,4.20
2023-03-16T04:24:04.784Z,4.70
2023-03-16T04:25:07.552Z,4.40
2023-03-16T04:26:12.108Z,4.18
2023-03-16T04:27:16.338Z,3.60
2023-03-16T04:28:18.970Z,4.53
2023-03-16T04:29:21.558Z,4.10
2023-03-16T04:30:23.562Z,3.80
2023-03-16T04:31:26.359Z,4.18
2023-03-16T04:32:28.371Z,4.37
2023-03-16T04:33:32.363Z,4.75
2023-03-16T04:34:34.785Z,4.57
2023-03-16T04:35:37.255Z,4.10
2023-03-16T04:36:39.712Z,4.20
2023-03-16T04:37:41.613Z,4.87
2023-03-16T04:38:43.867Z,4.18
2023-03-16T04:39:45.951Z,4.45
2023-03-16T04:40:48.748Z,4.78
2023-03-16T04:41:51.520Z,4.62
2023-03-16T04:42:54.081Z,4.70
2023-03-16T04:43:57.753Z,4.28
2023-03-16T04:45:00.012Z,4.55
2023-03-16T04:46:03.956Z,4.68
2023-03-16T04:47:06.425Z,4.95
2023-03-16T04:48:09.959Z,5.05
2023-03-16T04:49:12.510Z,4.47
2023-03-16T04:50:14.956Z,5.50
2023-03-16T04:51:17.573Z,5.93
2023-03-16T04:52:20.041Z,7.15
2023-03-16T04:53:22.616Z,7.95
2023-03-16T04:54:26.510Z,9.15
2023-03-16T04:55:28.814Z,11.50
2023-03-16T04:56:31.089Z,10.80
2023-03-16T04:57:35.040Z,11.77
2023-03-16T04:58:37.239Z,12.25
2023-03-16T04:59:40.581Z,12.73
2023-03-16T05:00:43.424Z,13.75
2023-03-16T05:01:46.176Z,14.23
2023-03-16T05:02:49.304Z,14.40
2023-03-16T05:03:52.996Z,13.65
2023-03-16T05:04:55.501Z,14.95
2023-03-16T05:05:57.539Z,14.85
2023-03-16T05:06:59.973Z,14.32
2023-03-16T05:08:02.395Z,14.18
2023-03-16T05:09:06.174Z,14.00
2023-03-16T05:10:11.151Z,14.30
2023-03-16T05:11:13.619Z,15.20
2023-03-16T05:12:17.345Z,14.48
2023-03-16T05:13:19.633Z,14.87
2023-03-16T05:14:21.940Z,14.20
2023-03-16T05:15:25.001Z,14.38
2023-03-16T05:16:29.827Z,13.75
2023-03-16T05:17:32.534Z,12.48
2023-03-16T05:18:34.640Z,13.45
2023-03-16T05:19:36.666Z,11.98
2023-03-16T05:20:39.112Z,11.15
2023-03-16T05:21:41.118Z,11.52
2023-03-16T05:22:45.475Z,12.15
2023-03-16T05:23:47.701Z,10.15
2023-03-16T05:24:49.690Z,11.25
2023-03-16T05:25:52.164Z,10.07
2023-03-16T05:26:54.461Z,9.75
2023-03-16T05:27:57.627Z,9.57
2023-03-16T05:29:01.355Z,10.27
2023-03-16T05:30:04.798Z,10.10
2023-03-16T05:31:07.364Z,10.70
2023-03-16T05:32:10.656Z,9.18
2023-03-16T05:33:13.129Z,10.00
2023-03-16T05:34:15.354Z,9.85
2023-03-16T05:35:17.736Z,9.65
2023-03-16T05:36:20.949Z,10.20
2023-03-16T05:37:24.242Z,10.38
2023-03-16T05:38:27.630Z,9.75
2023-03-16T05:39:31.010Z,8.88
2023-03-16T05:40:33.357Z,8.45
2023-03-16T05:41:36.250Z,9.90
2023-03-16T05:42:38.488Z,9.60
2023-03-16T05:43:40.900Z,9.52
2023-03-16T05:44:44.922Z,8.98
2023-03-16T05:45:47.774Z,9.02
2023-03-16T05:46:50.720Z,8.80
2023-03-16T05:47:53.398Z,7.28
2023-03-16T05:48:55.667Z,7.10
2023-03-16T05:49:58.170Z,7.28
2023-03-16T05:51:01.435Z,7.12
2023-03-16T05:52:04.256Z,7.57
2023-03-16T05:53:09.017Z,6.80
2023-03-16T05:54:11.086Z,6.70
2023-03-16T05:55:15.781Z,6.50
2023-03-16T05:56:18.154Z,7.85
2023-03-16T05:57:20.550Z,8.15
2023-03-16T05:58:22.878Z,8.18
2023-03-16T05:59:25.104Z,8.63
2023-03-16T06:00:29.954Z,9.40
2023-03-16T06:01:34.203Z,10.60
2023-03-16T06:02:37.728Z,10.07
2023-03-16T06:03:40.165Z,10.30
2023-03-16T06:04:42.440Z,9.63
2023-03-16T06:05:44.776Z,9.75
2023-03-16T06:06:47.023Z,10.20
2023-03-16T06:07:50.268Z,9.50
2023-03-16T06:08:52.988Z,9.60
2023-03-16T06:09:55.527Z,9.90
2023-03-16T06:10:57.497Z,9.98
2023-03-16T06:11:59.726Z,9.73
2023-03-16T06:13:02.033Z,9.25
2023-03-16T06:14:04.098Z,9.63
2023-03-16T06:15:07.948Z,9.38
2023-03-16T06:16:13.769Z,9.60
2023-03-16T06:17:15.984Z,9.18
2023-03-16T06:18:18.148Z,8.02
2023-03-16T06:19:20.348Z,8.93
2023-03-16T06:20:22.918Z,8.82
2023-03-16T06:21:25.000Z,8.85
2023-03-16T06:22:28.208Z,8.40
2023-03-16T06:23:30.159Z,8.25
2023-03-16T06:24:32.854Z,6.93
2023-03-16T06:25:34.758Z,7.07
2023-03-16T06:26:37.957Z,7.40
2023-03-16T06:27:42.496Z,8.30
2023-03-16T06:28:44.764Z,7.10
2023-03-16T06:29:47.651Z,7.25
2023-03-16T06:30:54.045Z,6.30
2023-03-16T06:31:57.132Z,6.40
2023-03-16T06:33:00.364Z,7.18
2023-03-16T06:34:02.764Z,6.93
2023-03-16T06:35:06.060Z,5.78
2023-03-16T06:36:08.833Z,5.90
2023-03-16T06:37:11.174Z,5.90
2023-03-16T06:38:14.322Z,5.78
2023-03-16T06:39:17.188Z,5.25
2023-03-16T06:40:20.503Z,4.05
2023-03-16T06:41:22.680Z,4.25
2023-03-16T06:42:24.608Z,4.60
2023-03-16T06:43:26.878Z,4.25
2023-03-16T06:44:29.219Z,4.75
2023-03-16T06:45:31.510Z,4.95
2023-03-16T06:46:33.527Z,4.55
2023-03-16T06:47:35.849Z,4.28
2023-03-16T06:48:38.781Z,4.93
2023-03-16T06:49:40.798Z,4.47
2023-03-16T06:50:46.654Z,4.62
2023-03-16T06:51:54.144Z,4.40
2023-03-16T06:52:57.416Z,4.70
2023-03-16T06:54:00.080Z,4.65
2023-03-16T06:55:02.130Z,4.00
2023-03-16T06:56:05.430Z,4.68
2023-03-16T06:57:08.745Z,4.75
2023-03-16T06:58:11.786Z,4.72
2023-03-16T06:59:14.088Z,5.00
2023-03-16T07:00:16.428Z,4.85
2023-03-16T07:01:18.428Z,4.10
2023-03-16T07:02:22.397Z,4.43
2023-03-16T07:03:24.520Z,4.10
2023-03-16T07:04:27.985Z,4.40
2023-03-16T07:05:30.234Z,4.70
2023-03-16T07:06:32.960Z,4.60
2023-03-16T07:07:34.918Z,4.53
2023-03-16T07:08:36.908Z,5.57
2023-03-16T07:09:41.645Z,4.65
2023-03-16T07:10:44.050Z,4.57
2023-03-16T07:11:45.894Z,4.32
2023-03-16T07:12:47.837Z,4.12
2023-03-16T07:13:49.799Z,4.32
2023-03-16T07:14:54.238Z,4.50
2023-03-16T07:15:56.832Z,4.50
2023-03-16T07:16:58.933Z,4.07
2023-03-16T07:18:01.190Z,3.90
2023-03-16T07:19:03.703Z,3.80
2023-03-16T07:20:10.289Z,3.65
2023-03-16T07:21:12.331Z,4.05
2023-03-16T07:22:14.571Z,4.03
2023-03-16T07:23:16.573Z,4.22
2023-03-16T07:24:18.774Z,4.10
2023-03-16T07:25:21.415Z,4.70
2023-03-16T07:26:23.846Z,3.78
2023-03-16T07:27:26.315Z,3.85
2023-03-16T07:28:29.700Z,3.75
2023-03-16T07:29:34.230Z,3.65
2023-03-16T07:30:38.153Z,3.10
2023-03-16T07:31:40.528Z,3.55
2023-03-16T07:32:43.340Z,3.92
2023-03-16T07:33:45.536Z,4.25
2023-03-16T07:34:48.350Z,4.00
2023-03-16T07:35:52.061Z,4.18
2023-03-16T07:36:54.036Z,3.70
2023-03-16T07:37:56.352Z,3.55
2023-03-16T07:38:58.936Z,3.87
2023-03-16T07:40:01.280Z,3.60
2023-03-16T07:41:08.573Z,3.67
2023-03-16T07:42:12.782Z,3.58
2023-03-16T07:43:19.361Z,3.72
2023-03-16T07:44:25.176Z,3.50
2023-03-16T07:45:29.488Z,3.95
2023-03-16T07:46:32.773Z,3.62
2023-03-16T07:47:35.506Z,3.80
2023-03-16T07:48:43.957Z,3.83
2023-03-16T07:49:46.670Z,3.15
2023-03-16T07:50:49.416Z,3.70
2023-03-16T07:51:51.859Z,4.18
2023-03-16T07:52:54.468Z,3.83
2023-03-16T07:53:56.567Z,3.12
2023-03-16T07:54:59.166Z,3.78
2023-03-16T07:56:01.656Z,3.50
2023-03-16T07:57:06.401Z,3.97
2023-03-16T07:58:11.173Z,3.30
2023-03-16T07:59:13.354Z,3.50
2023-03-16T08:00:16.718Z,3.90
2023-03-16T08:01:19.666Z,3.85
2023-03-16T08:02:23.297Z,3.40
2023-03-16T08:03:30.148Z,3.50
2023-03-16T08:04:32.430Z,3.60
2023-03-16T08:05:34.714Z,3.67
2023-03-16T08:06:37.102Z,3.40
2023-03-16T08:07:39.058Z,3.90
2023-03-16T08:08:43.094Z,3.95
2023-03-16T08:09:45.495Z,3.50
2023-03-16T08:10:52.646Z,3.42
2023-03-16T08:11:55.355Z,3.97
2023-03-16T08:12:57.508Z,3.42
2023-03-16T08:13:59.586Z,3.62
2023-03-16T08:15:03.082Z,3.87
2023-03-16T08:16:10.414Z,3.53
2023-03-16T08:17:13.387Z,3.70
2023-03-16T08:18:15.620Z,3.50
2023-03-16T08:19:20.269Z,3.62
2023-03-16T08:20:22.574Z,3.50
2023-03-16T08:21:24.994Z,4.18
2023-03-16T08:22:28.585Z,3.70
2023-03-16T08:23:30.726Z,5.03
2023-03-16T08:24:33.239Z,4.10
2023-03-16T08:25:35.854Z,3.20
2023-03-16T08:26:39.568Z,4.15
2023-03-16T08:27:42.966Z,6.60
2023-03-16T08:28:46.465Z,6.45
2023-03-16T08:29:52.444Z,5.60
2023-03-16T08:30:55.606Z,3.40
2023-03-16T08:31:58.357Z,3.72
2023-03-16T08:33:03.258Z,3.53
2023-03-16T08:34:05.506Z,3.37
2023-03-16T08:35:14.290Z,2.87
2023-03-16T08:36:18.011Z,3.42
2023-03-16T08:37:22.118Z,2.83
2023-03-16T08:38:27.089Z,4.28
2023-03-16T08:39:29.612Z,3.15
2023-03-16T08:40:34.904Z,3.40
2023-03-16T08:41:37.817Z,3.20
2023-03-16T08:42:41.534Z,3.10
2023-03-16T08:43:44.767Z,3.75
2023-03-16T08:44:51.032Z,2.87
2023-03-16T08:45:53.951Z,3.17
2023-03-16T08:46:56.856Z,3.22
2023-03-16T08:47:59.818Z,3.08
2023-03-16T08:49:29.409Z,2.62
2023-03-16T08:50:33.647Z,3.40
2023-03-16T08:51:35.728Z,3.10
2023-03-16T08:52:37.659Z,3.60
2023-03-16T08:53:39.590Z,3.47
2023-03-16T08:54:49.707Z,3.10
2023-03-16T08:56:05.034Z,2.70
2023-03-16T08:57:07.035Z,2.85
2023-03-16T08:58:10.782Z,3.00
2023-03-16T08:59:23.610Z,3.08
2023-03-16T09:00:31.207Z,3.00
2023-03-16T09:01:34.990Z,3.03
2023-03-16T09:02:38.740Z,3.20
2023-03-16T09:03:42.326Z,3.20
2023-03-16T09:04:44.415Z,2.97
2023-03-16T09:05:46.966Z,3.08
2023-03-16T09:07:05.862Z,3.33
2023-03-16T09:08:10.151Z,3.30
2023-03-16T09:09:12.134Z,3.33
2023-03-16T09:10:16.353Z,2.83
2023-03-16T09:11:19.869Z,3.25
2023-03-16T09:12:23.472Z,2.33
2023-03-16T09:13:26.009Z,2.58
2023-03-16T09:14:28.013Z,3.25
2023-03-16T09:15:30.001Z,3.00
2023-03-16T09:16:32.020Z,2.65
2023-03-16T09:17:34.732Z,2.83
2023-03-16T09:18:36.764Z,2.70
2023-03-16T09:19:57.709Z,2.97
2023-03-16T09:22:04.380Z,2.78
2023-03-16T09:23:06.557Z,2.92
2023-03-16T09:24:08.972Z,2.62
2023-03-16T09:25:11.383Z,2.75
2023-03-16T09:26:14.871Z,2.92
2023-03-16T09:27:17.919Z,3.00
2023-03-16T09:28:22.075Z,2.72
2023-03-16T09:29:24.588Z,3.10
2023-03-16T09:30:26.881Z,2.97
2023-03-16T09:31:28.988Z,2.67
2023-03-16T09:32:31.174Z,2.65
2023-03-16T09:33:34.381Z,3.15
2023-03-16T09:34:36.256Z,2.70
2023-03-16T09:35:38.316Z,2.70
2023-03-16T09:36:40.906Z,2.60
2023-03-16T09:38:04.372Z,2.47
2023-03-16T09:40:12.012Z,2.25
2023-03-16T09:41:39.139Z,2.50
2023-03-16T09:42:50.202Z,2.35
2023-03-16T09:44:16.427Z,2.67
2023-03-16T09:45:33.021Z,2.45
2023-03-16T09:46:43.693Z,2.58
2023-03-16T09:47:49.674Z,2.55
2023-03-16T09:48:52.234Z,2.67
2023-03-16T09:50:02.322Z,2.80
2023-03-16T09:51:08.501Z,2.50
2023-03-16T09:52:34.071Z,2.40
2023-03-16T09:53:39.341Z,2.62
2023-03-16T09:55:00.054Z,2.62
2023-03-16T09:56:10.057Z,2.60
2023-03-16T09:57:26.066Z,2.70
2023-03-16T09:58:28.399Z,2.70
2023-03-16T09:59:30.374Z,2.60
2023-03-16T10:00:39.950Z,2.97
2023-03-16T10:01:53.850Z,3.00
2023-03-16T10:03:08.221Z,3.15
2023-03-16T10:04:29.354Z,3.22
2023-03-16T10:05:32.933Z,2.72
2023-03-16T10:06:44.189Z,2.78
2023-03-16T10:08:02.004Z,3.22
2023-03-16T10:09:17.104Z,3.20
2023-03-16T10:10:42.178Z,3.17
2023-03-16T10:11:52.850Z,3.30
2023-03-16T10:13:00.234Z,2.70
2023-03-16T10:14:02.559Z,3.33
2023-03-16T10:15:13.587Z,2.85
2023-03-16T10:16:41.151Z,2.80
2023-03-16T10:18:07.152Z,2.58
2023-03-16T10:19:23.365Z,4.40
2023-03-16T10:20:28.158Z,3.08
2023-03-16T10:21:34.310Z,2.80
2023-03-16T10:22:42.801Z,2.50
2023-03-16T10:23:47.154Z,2.30
2023-03-16T10:25:17.088Z,4.57
2023-03-16T10:26:26.207Z,2.50
2023-03-16T10:27:33.658Z,2.55
2023-03-16T10:28:37.632Z,2.70
2023-03-16T10:29:39.563Z,3.12
2023-03-16T10:30:43.011Z,2.50
2023-03-16T10:31:45.911Z,2.62
2023-03-16T10:32:48.358Z,3.40
2023-03-16T10:34:02.604Z,2.50
2023-03-16T10:35:20.974Z,2.97
2023-03-16T10:36:33.588Z,3.08
2023-03-16T10:37:35.916Z,2.70
2023-03-16T10:38:40.896Z,3.40
2023-03-16T10:39:45.772Z,2.83
2023-03-16T10:40:47.729Z,2.85
2023-03-16T10:41:57.947Z,2.60
2023-03-16T10:43:26.041Z,2.33
2023-03-16T10:44:30.041Z,2.28
2023-03-16T10:45:35.923Z,2.60
2023-03-16T10:46:48.645Z,2.67
2023-03-16T10:47:51.251Z,2.60
2023-03-16T10:48:54.866Z,2.50
2023-03-16T10:49:56.832Z,2.55
2023-03-16T10:51:03.949Z,2.83
2023-03-16T10:52:44.230Z,2.33
2023-03-16T10:53:47.740Z,2.62
2023-03-16T10:54:58.321Z,2.72
2023-03-16T10:56:11.754Z,2.65
2023-03-16T10:57:22.785Z,2.70
2023-03-16T10:58:33.806Z,2.85
2023-03-16T10:59:37.119Z,3.30
2023-03-16T11:00:43.502Z,2.97
2023-03-16T11:01:50.019Z,2.87
2023-03-16T11:02:57.107Z,2.65
2023-03-16T11:03:59.130Z,2.75
2023-03-16T11:05:19.369Z,2.40
2023-03-16T11:06:30.698Z,2.80
2023-03-16T11:07:34.760Z,2.92
2023-03-16T11:08:38.954Z,2.50
2023-03-16T11:09:40.904Z,2.92
2023-03-16T11:10:55.600Z,2.72
2023-03-16T11:11:58.181Z,2.40
2023-03-16T11:13:11.373Z,2.58
2023-03-16T11:14:15.559Z,2.55
2023-03-16T11:15:25.764Z,2.40
2023-03-16T11:16:39.576Z,3.22
2023-03-16T11:17:49.776Z,2.42
2023-03-16T11:19:09.352Z,2.28
2023-03-16T11:20:19.229Z,2.40
2023-03-16T11:21:38.800Z,2.80
2023-03-16T11:22:48.482Z,2.30
2023-03-16T11:23:55.160Z,2.40
2023-03-16T11:25:04.291Z,2.08
2023-03-16T11:26:17.626Z,2.50
2023-03-16T11:27:34.023Z,2.90
2023-03-16T11:28:48.721Z,2.45
2023-03-16T11:30:09.800Z,2.67
2023-03-16T11:31:14.858Z,2.55
2023-03-16T11:32:22.505Z,2.45
2023-03-16T11:33:27.349Z,2.47
2023-03-16T11:34:31.295Z,2.45
2023-03-16T11:35:38.423Z,2.53
2023-03-16T11:36:51.601Z,2.37
2023-03-16T11:38:31.468Z,2.70
2023-03-16T11:39:42.984Z,2.03
2023-03-16T11:41:01.553Z,2.40
2023-03-16T11:42:19.001Z,2.42
2023-03-16T11:43:39.293Z,2.42
2023-03-16T11:44:50.680Z,2.22
2023-03-16T11:45:58.447Z,2.30
2023-03-16T11:47:01.011Z,2.10
2023-03-16T11:48:18.112Z,2.00
2023-03-16T11:49:29.164Z,2.35
2023-03-16T11:50:44.723Z,1.95
2023-03-16T11:52:05.224Z,2.03
2023-03-16T11:53:24.643Z,2.10
2023-03-16T11:54:32.716Z,2.33
2023-03-16T11:56:13.052Z,2.28
2023-03-16T11:57:52.584Z,2.37
2023-03-16T11:59:00.740Z,2.30
2023-03-16T12:00:17.152Z,2.33
2023-03-16T12:01:25.763Z,1.75
2023-03-16T12:02:51.319Z,2.20
2023-03-16T12:04:14.920Z,2.03
2023-03-16T12:05:16.978Z,3.15
2023-03-16T12:06:32.454Z,2.53
2023-03-16T12:08:19.044Z,2.20
2023-03-16T12:09:26.691Z,1.60
2023-03-16T12:10:38.367Z,1.67
2023-03-16T12:11:55.100Z,1.70
2023-03-16T12:13:20.096Z,2.08
2023-03-16T12:14:31.351Z,1.55
2023-03-16T12:15:40.208Z,2.37
2023-03-16T12:16:51.445Z,2.12
2023-03-16T12:17:57.596Z,2.00
2023-03-16T12:19:03.859Z,1.87
2023-03-16T12:20:20.056Z,2.03
2023-03-16T12:21:28.159Z,2.08
2023-03-16T12:22:37.388Z,1.87
2023-03-16T12:23:49.641Z,2.42
2023-03-16T12:24:51.603Z,2.17
2023-03-16T12:25:53.684Z,2.20
2023-03-16T12:26:58.402Z,1.65
2023-03-16T12:28:05.482Z,2.25
2023-03-16T12:29:48.411Z,2.30
2023-03-16T12:30:50.602Z,2.00
2023-03-16T12:31:58.175Z,1.92
2023-03-16T12:33:27.111Z,1.75
2023-03-16T12:34:50.261Z,1.65
2023-03-16T12:35:56.577Z,1.87
2023-03-16T12:37:19.832Z,2.00
2023-03-16T12:38:28.619Z,1.73
2023-03-16T12:39:43.289Z,1.70
2023-03-16T12:41:26.349Z,2.08
2023-03-16T12:44:13.165Z,1.80
2023-03-16T12:45:31.918Z,1.70
2023-03-16T12:46:53.498Z,1.70
2023-03-16T12:48:08.048Z,1.70
2023-03-16T12:49:10.485Z,1.60
2023-03-16T12:50:19.827Z,1.80
2023-03-16T12:51:33.062Z,1.92
2023-03-16T12:52:43.320Z,2.00
2023-03-16T12:53:51.712Z,1.83
2023-03-16T12:55:07.247Z,1.70
2023-03-16T12:56:12.635Z,1.85
2023-03-16T12:57:17.194Z,1.40
2023-03-16T12:58:19.258Z,1.60
2023-03-16T12:59:25.783Z,1.70
2023-03-16T13:00:40.592Z,1.67
2023-03-16T13:01:44.823Z,1.90
2023-03-16T13:02:59.777Z,2.08
2023-03-16T13:04:30.358Z,1.50
2023-03-16T13:05:36.085Z,1.48
2023-03-16T13:06:44.449Z,1.50
2023-03-16T13:07:49.946Z,1.40
2023-03-16T13:08:59.800Z,1.73
2023-03-16T13:10:14.825Z,2.40
2023-03-16T13:11:17.709Z,2.10
2023-03-16T13:12:28.685Z,2.28
2023-03-16T13:13:31.085Z,1.90
2023-03-16T13:14:42.648Z,2.03
2023-03-16T13:15:47.574Z,1.80
2023-03-16T13:16:50.858Z,2.20
2023-03-16T13:18:14.916Z,1.92
2023-03-16T13:19:19.904Z,1.58
2023-03-16T13:20:32.550Z,1.50
2023-03-16T13:21:40.173Z,1.33
2023-03-16T13:22:45.315Z,1.25
2023-03-16T13:23:59.608Z,1.50
2023-03-16T13:25:28.684Z,1.60
2023-03-16T13:26:50.029Z,1.83
2023-03-16T13:27:55.846Z,1.75
2023-03-16T13:28:58.773Z,1.30
2023-03-16T13:30:15.609Z,1.73
2023-03-16T13:31:46.752Z,1.40
2023-03-16T13:32:53.150Z,1.75
2023-03-16T13:33:59.952Z,1.40
2023-03-16T13:35:05.907Z,1.50
2023-03-16T13:36:08.193Z,1.60
2023-03-16T13:37:15.119Z,2.00
2023-03-16T13:38:20.020Z,1.37
2023-03-16T13:39:24.258Z,1.70
2023-03-16T13:40:27.938Z,1.50
2023-03-16T13:41:30.711Z,1.70
2023-03-16T13:42:33.790Z,1.50
2023-03-16T13:43:41.743Z,1.30
2023-03-16T13:44:44.613Z,1.37
2023-03-16T13:45:47.086Z,1.40
2023-03-16T13:46:50.825Z,1.52
2023-03-16T13:47:53.512Z,1.62
2023-03-16T13:48:58.569Z,2.00
2023-03-16T13:50:00.841Z,1.50
2023-03-16T13:51:03.219Z,1.40
2023-03-16T13:52:05.981Z,2.80
2023-03-16T13:53:18.578Z,1.60
2023-03-16T13:54:31.020Z,2.10
2023-03-16T13:55:36.632Z,1.20
2023-03-16T13:56:40.168Z,1.30
2023-03-16T13:57:45.144Z,1.60
2023-03-16T13:58:52.185Z,1.50
2023-03-16T14:00:15.762Z,2.00
2023-03-16T14:01:32.070Z,1.50
2023-03-16T14:02:42.633Z,1.42
2023-03-16T14:03:44.610Z,1.40
2023-03-16T14:04:47.160Z,1.87
2023-03-16T14:05:49.617Z,1.40
2023-03-16T14:06:55.061Z,1.60
2023-03-16T14:07:59.433Z,1.17
2023-03-16T14:09:04.932Z,1.67
2023-03-16T14:10:11.480Z,1.70
2023-03-16T14:11:13.514Z,1.30
2023-03-16T14:12:19.954Z,1.40
2023-03-16T14:13:34.176Z,1.40
2023-03-16T14:14:41.291Z,1.50
2023-03-16T14:15:45.442Z,1.52
2023-03-16T14:16:47.411Z,1.50
2023-03-16T14:17:49.747Z,1.15
2023-03-16T14:19:17.107Z,1.40
2023-03-16T14:20:25.634Z,1.40
2023-03-16T14:21:30.063Z,1.45
2023-03-16T14:22:37.882Z,1.30
2023-03-16T14:23:44.042Z,1.73
2023-03-16T14:24:52.945Z,1.40
2023-03-16T14:25:55.383Z,1.50
2023-03-16T14:26:58.388Z,1.40
2023-03-16T14:28:06.169Z,1.60
2023-03-16T14:29:20.049Z,1.35
2023-03-16T14:30:25.870Z,1.87
2023-03-16T14:31:39.673Z,1.90
2023-03-16T14:32:42.101Z,1.92
2023-03-16T14:33:46.048Z,1.90
2023-03-16T14:34:51.468Z,2.33
2023-03-16T14:35:59.042Z,1.65
2023-03-16T14:37:12.864Z,1.73
2023-03-16T14:38:27.205Z,1.67
2023-03-16T14:39:29.712Z,1.80
2023-03-16T14:40:33.263Z,1.70
2023-03-16T14:41:35.288Z,1.77
2023-03-16T14:42:40.136Z,1.95